Time;durP1;ratioP1;P1;durP2;ratioP2;P2;SDS_P1;SDS_P2;PMS_P1;PMS_P2;Temp;Humidity;BMP_temperature;BMP_pressure;BME280_temperature;BME280_humidity;BME280_pressure;Samples;Min_cycle;Max_cycle;Signal;HPM_P1;HPM_P2
2023/07/03 00:01:32;;;;;;;9.57;7.78;;;18.50;99.90;;;;;;4176270;28;20033;-62
2023/07/03 00:03:33;;;;;;;11.10;7.50;;;18.40;99.90;;;;;;4176489;28;20071;-62
2023/07/03 00:05:35;;;;;;;8.65;7.72;;;18.40;99.90;;;;;;4177134;28;20459;-62
2023/07/03 00:07:37;;;;;;;9.48;6.93;;;18.40;99.90;;;;;;4176582;28;20362;-61
2023/07/03 00:09:38;;;;;;;9.00;7.43;;;18.40;99.90;;;;;;4177571;28;20021;-63
2023/07/03 00:11:39;;;;;;;10.13;7.20;;;18.40;99.90;;;;;;4175185;28;20025;-66
2023/07/03 00:13:40;;;;;;;11.30;7.55;;;18.40;99.90;;;;;;4177357;28;20025;-66
2023/07/03 00:15:42;;;;;;;13.32;8.52;;;18.40;99.90;;;;;;4176111;28;20029;-62
2023/07/03 00:17:46;;;;;;;8.95;7.85;;;18.40;99.90;;;;;;4176754;28;20120;-63
2023/07/03 00:19:47;;;;;;;8.07;7.28;;;18.40;99.90;;;;;;4158455;28;20037;-62
2023/07/03 00:21:48;;;;;;;9.98;7.72;;;18.40;99.90;;;;;;4175567;28;20111;-63
2023/07/03 00:23:49;;;;;;;11.20;8.43;;;18.40;99.90;;;;;;4176039;28;20063;-67
2023/07/03 00:25:51;;;;;;;10.50;7.47;;;18.40;99.90;;;;;;4176821;28;20040;-61
2023/07/03 00:27:53;;;;;;;10.88;8.02;;;18.30;99.90;;;;;;4176500;28;20021;-65
2023/07/03 00:29:55;;;;;;;12.25;8.57;;;18.30;99.90;;;;;;4176577;28;20048;-63
2023/07/03 00:31:56;;;;;;;9.45;7.70;;;18.30;99.90;;;;;;4175814;28;20091;-71
2023/07/03 00:33:58;;;;;;;8.68;7.78;;;18.30;99.90;;;;;;4176446;28;20068;-66
2023/07/03 00:35:59;;;;;;;11.55;8.35;;;18.30;99.90;;;;;;4177061;28;20056;-63
2023/07/03 00:38:00;;;;;;;11.90;8.15;;;18.30;99.90;;;;;;4175782;28;20033;-65
2023/07/03 00:40:03;;;;;;;10.30;7.95;;;18.20;99.90;;;;;;4176943;28;20041;-62
2023/07/03 00:42:04;;;;;;;9.63;8.23;;;18.20;99.90;;;;;;4175872;28;20535;-63
2023/07/03 00:44:11;;;;;;;10.30;7.88;;;18.20;99.90;;;;;;4168681;28;20049;-67
2023/07/03 00:46:12;;;;;;;11.32;9.15;;;18.20;99.90;;;;;;4175794;28;20021;-61
2023/07/03 00:48:14;;;;;;;9.50;8.20;;;18.20;99.90;;;;;;4177325;28;20029;-61
2023/07/03 00:50:15;;;;;;;16.40;9.20;;;18.20;99.90;;;;;;4176055;28;20431;-64
2023/07/03 00:52:16;;;;;;;10.13;8.68;;;18.10;99.90;;;;;;4176989;28;20045;-61
2023/07/03 00:54:18;;;;;;;9.88;8.40;;;18.10;99.90;;;;;;4175730;28;20021;-62
2023/07/03 00:56:19;;;;;;;10.52;8.90;;;18.10;99.90;;;;;;4176918;28;20086;-62
2023/07/03 00:58:20;;;;;;;10.52;8.32;;;18.10;99.90;;;;;;4176001;28;20094;-63
2023/07/03 01:00:25;;;;;;;10.30;7.85;;;18.10;99.90;;;;;;4176965;28;20051;-68
2023/07/03 01:02:42;;;;;;;11.50;8.93;;;18.10;99.90;;;;;;4175462;28;20485;-61
2023/07/03 01:05:02;;;;;;;12.40;9.55;;;18.10;99.90;;;;;;4179611;28;20114;-62
2023/07/03 01:07:16;;;;;;;9.55;8.32;;;18.10;99.90;;;;;;4178680;28;20029;-68
2023/07/03 01:09:20;;;;;;;11.15;8.05;;;18.00;99.90;;;;;;4180486;28;20131;-61
2023/07/03 01:11:22;;;;;;;11.60;8.02;;;18.10;99.90;;;;;;4178464;28;20041;-64
2023/07/03 01:13:26;;;;;;;11.85;8.70;;;18.10;99.90;;;;;;4180067;28;20021;-62
2023/07/03 01:15:34;;;;;;;8.63;7.72;;;18.10;99.90;;;;;;4178696;28;20029;-64
2023/07/03 01:17:40;;;;;;;11.68;7.63;;;18.10;99.90;;;;;;4179651;28;20094;-67
2023/07/03 01:19:47;;;;;;;8.90;7.95;;;18.10;99.90;;;;;;4179235;28;20059;-69
2023/07/03 01:21:58;;;;;;;11.45;8.18;;;18.10;99.90;;;;;;4179209;28;20025;-62
2023/07/03 01:24:11;;;;;;;11.00;8.75;;;18.10;99.90;;;;;;4176922;28;20052;-69
2023/07/03 01:26:14;;;;;;;11.60;8.77;;;18.00;99.90;;;;;;4179596;28;20055;-62
2023/07/03 01:28:19;;;;;;;10.15;8.70;;;18.00;99.90;;;;;;4179130;28;20029;-66
2023/07/03 01:30:21;;;;;;;9.52;7.28;;;17.90;99.90;;;;;;4179619;28;20013;-66
2023/07/03 01:32:26;;;;;;;11.32;8.23;;;17.80;99.90;;;;;;4179382;28;20461;-64
2023/07/03 01:34:28;;;;;;;11.65;8.57;;;17.90;99.90;;;;;;4179410;28;20441;-64
2023/07/03 01:36:33;;;;;;;8.75;7.60;;;17.90;99.90;;;;;;4179517;28;20017;-68
2023/07/03 01:38:34;;;;;;;9.65;7.95;;;17.90;99.90;;;;;;4178586;28;20037;-62
2023/07/03 01:40:36;;;;;;;10.60;7.88;;;17.80;99.90;;;;;;4180057;28;20422;-70
2023/07/03 01:42:40;;;;;;;10.13;7.85;;;17.80;99.90;;;;;;4178592;28;20032;-59
2023/07/03 01:44:42;;;;;;;9.70;8.20;;;17.90;99.90;;;;;;4178342;28;20519;-72
2023/07/03 01:46:43;;;;;;;10.60;7.72;;;17.90;99.90;;;;;;4177756;28;20037;-63
2023/07/03 01:48:44;;;;;;;12.00;8.18;;;17.90;99.90;;;;;;4179354;28;20106;-66
2023/07/03 01:50:47;;;;;;;8.68;7.78;;;17.90;99.90;;;;;;4177887;28;20040;-62
2023/07/03 01:52:57;;;;;;;9.15;7.30;;;17.90;99.90;;;;;;4179410;28;20094;-69
2023/07/03 01:55:10;;;;;;;9.25;7.72;;;17.90;99.90;;;;;;4178644;28;20095;-69
2023/07/03 01:57:16;;;;;;;8.63;7.15;;;17.90;99.90;;;;;;4179569;28;20037;-66
2023/07/03 01:59:24;;;;;;;10.02;8.10;;;17.90;99.90;;;;;;4178114;28;20044;-67
2023/07/03 02:01:34;;;;;;;9.32;8.35;;;17.80;99.90;;;;;;4179529;28;20016;-71
2023/07/03 02:03:57;;;;;;;8.77;7.18;;;17.70;99.90;;;;;;4178432;28;20106;-62
2023/07/03 02:06:09;;;;;;;11.20;8.25;;;17.60;99.90;;;;;;4179327;28;20527;-66
2023/07/03 02:08:11;;;;;;;9.60;6.70;;;17.50;99.90;;;;;;4176616;28;20041;-61
2023/07/03 02:10:12;;;;;;;10.65;7.43;;;17.50;99.90;;;;;;4179312;28;20361;-61
2023/07/03 02:12:13;;;;;;;10.85;8.75;;;17.50;99.90;;;;;;4178077;28;20045;-61
2023/07/03 02:14:15;;;;;;;11.73;7.82;;;17.50;99.90;;;;;;4178082;28;20041;-61
2023/07/03 02:16:16;;;;;;;10.88;8.30;;;17.50;99.90;;;;;;4177911;28;20048;-61
2023/07/03 02:18:20;;;;;;;11.45;9.13;;;17.50;99.90;;;;;;4177771;28;20048;-61
2023/07/03 02:20:21;;;;;;;13.15;9.13;;;17.50;99.90;;;;;;4178078;28;20071;-62
2023/07/03 02:22:23;;;;;;;10.63;8.73;;;17.50;99.90;;;;;;4178429;28;20102;-74
2023/07/03 02:24:24;;;;;;;12.57;8.68;;;17.40;99.90;;;;;;4176988;28;20049;-62
2023/07/03 02:26:25;;;;;;;11.80;9.63;;;17.40;99.90;;;;;;4177639;28;20086;-61
2023/07/03 02:28:27;;;;;;;16.88;10.32;;;17.30;99.90;;;;;;4177429;28;20193;-61
2023/07/03 02:30:28;;;;;;;19.15;13.60;;;17.30;99.90;;;;;;4177786;28;20020;-61
2023/07/03 02:32:34;;;;;;;17.48;13.15;;;17.20;99.90;;;;;;4178842;28;20052;-61
2023/07/03 02:34:35;;;;;;;16.00;12.77;;;17.20;99.90;;;;;;4177809;28;20041;-61
2023/07/03 02:36:38;;;;;;;13.93;10.70;;;17.20;99.90;;;;;;4178449;28;20182;-63
2023/07/03 02:38:39;;;;;;;14.68;9.85;;;17.20;99.90;;;;;;4177608;28;20059;-62
2023/07/03 02:40:40;;;;;;;12.98;9.13;;;17.10;99.90;;;;;;4178966;28;20021;-62
2023/07/03 02:42:41;;;;;;;11.07;9.45;;;17.20;99.90;;;;;;4177655;28;20025;-70
2023/07/03 02:44:42;;;;;;;10.93;9.75;;;17.20;99.90;;;;;;4178998;28;20095;-62
2023/07/03 02:46:44;;;;;;;12.98;9.68;;;17.20;99.90;;;;;;4177213;28;20435;-61
2023/07/03 02:48:45;;;;;;;17.25;9.80;;;17.20;99.90;;;;;;4178214;28;20459;-66
2023/07/03 02:50:51;;;;;;;14.98;10.57;;;17.20;99.90;;;;;;4177829;28;20079;-62
2023/07/03 02:52:52;;;;;;;12.48;8.65;;;17.20;99.90;;;;;;4178401;28;20083;-61
2023/07/03 02:54:53;;;;;;;15.80;8.95;;;17.30;99.90;;;;;;4177705;28;20090;-63
2023/07/03 02:56:54;;;;;;;12.52;8.93;;;17.20;99.90;;;;;;4178189;28;20124;-63
2023/07/03 02:58:55;;;;;;;13.15;9.43;;;17.20;99.90;;;;;;4178303;28;20075;-62
2023/07/03 03:00:57;;;;;;;12.80;9.48;;;17.30;99.90;;;;;;4177025;28;20041;-62
2023/07/03 03:02:58;;;;;;;12.07;9.07;;;17.30;99.90;;;;;;4178087;28;20033;-61
2023/07/03 03:04:59;;;;;;;14.50;9.95;;;17.30;99.90;;;;;;4177852;28;20102;-61
2023/07/03 03:07:00;;;;;;;11.68;9.25;;;17.40;99.90;;;;;;4178200;28;20083;-59
2023/07/03 03:09:01;;;;;;;14.68;9.18;;;17.40;99.90;;;;;;4176971;28;20037;-61
2023/07/03 03:11:03;;;;;;;11.52;9.20;;;17.50;99.90;;;;;;4178065;28;20060;-61
2023/07/03 03:13:04;;;;;;;11.60;9.00;;;17.60;99.90;;;;;;4177093;28;20354;-60
2023/07/03 03:15:06;;;;;;;10.52;9.07;;;17.60;99.90;;;;;;4178350;28;20029;-60
2023/07/03 03:17:07;;;;;;;11.18;9.38;;;17.70;99.90;;;;;;4176727;28;20789;-61
2023/07/03 03:19:08;;;;;;;10.90;9.15;;;17.90;99.90;;;;;;4178114;28;20063;-61
2023/07/03 03:21:09;;;;;;;13.02;9.25;;;18.20;99.90;;;;;;4175268;28;20087;-64
2023/07/03 03:23:10;;;;;;;22.98;10.93;;;18.40;99.90;;;;;;4177819;28;20032;-60
2023/07/03 03:25:12;;;;;;;12.18;8.70;;;18.80;99.90;;;;;;4175997;28;20122;-60
2023/07/03 03:27:13;;;;;;;12.80;8.90;;;19.10;99.90;;;;;;4177785;28;20025;-61
2023/07/03 03:29:14;;;;;;;10.63;7.97;;;19.40;99.90;;;;;;4176716;28;20041;-68
2023/07/03 03:31:15;;;;;;;14.35;8.32;;;19.60;99.90;;;;;;4176780;28;20310;-61
2023/07/03 03:33:16;;;;;;;11.95;8.20;;;19.90;99.90;;;;;;4177543;28;20481;-66
2023/07/03 03:35:17;;;;;;;12.60;8.25;;;20.20;99.90;;;;;;4176621;28;20087;-62
2023/07/03 03:37:18;;;;;;;11.40;7.97;;;20.30;99.90;;;;;;4177149;28;20541;-64
2023/07/03 03:39:20;;;;;;;12.98;8.35;;;20.50;99.90;;;;;;4176378;28;20435;-63
2023/07/03 03:41:21;;;;;;;9.85;7.10;;;20.70;99.90;;;;;;4176938;28;20029;-62
2023/07/03 03:43:22;;;;;;;11.77;7.50;;;21.00;99.90;;;;;;4176031;28;20656;-61
2023/07/03 03:45:24;;;;;;;8.80;7.18;;;21.30;99.90;;;;;;4177628;28;20025;-63
2023/07/03 03:47:25;;;;;;;11.68;8.05;;;21.50;99.90;;;;;;4176398;28;20039;-61
2023/07/03 03:49:26;;;;;;;10.27;7.07;;;21.80;99.90;;;;;;4178003;28;20029;-61
2023/07/03 03:51:28;;;;;;;10.00;7.68;;;22.30;99.90;;;;;;4175992;28;20033;-61
2023/07/03 03:53:29;;;;;;;11.77;7.28;;;22.70;99.90;;;;;;4177308;28;20029;-63
2023/07/03 03:55:30;;;;;;;11.50;7.25;;;23.20;99.90;;;;;;4176526;28;20071;-60
2023/07/03 03:57:31;;;;;;;11.95;7.25;;;23.50;99.90;;;;;;4177238;28;20040;-61
2023/07/03 03:59:32;;;;;;;10.60;6.95;;;23.80;99.90;;;;;;4176127;28;20145;-61
2023/07/03 04:01:34;;;;;;;15.15;7.03;;;24.10;99.90;;;;;;4174503;28;20476;-61
2023/07/03 04:03:35;;;;;;;12.02;6.53;;;24.30;99.90;;;;;;4176184;28;20098;-61
2023/07/03 04:05:36;;;;;;;10.45;6.60;;;24.60;99.90;;;;;;4176778;28;20492;-61
2023/07/03 04:07:38;;;;;;;8.25;6.32;;;24.80;99.90;;;;;;4176663;28;20087;-61
2023/07/03 04:09:40;;;;;;;10.00;6.38;;;24.90;99.90;;;;;;4175752;28;20106;-62
2023/07/03 04:11:41;;;;;;;11.60;6.25;;;25.10;99.90;;;;;;4177493;28;20132;-62
2023/07/03 04:13:42;;;;;;;8.93;6.20;;;25.00;99.90;;;;;;4175397;28;20052;-61
2023/07/03 04:15:52;;;;;;;8.68;5.97;;;25.00;99.90;;;;;;4176880;28;20032;-61
2023/07/03 04:17:53;;;;;;;8.65;6.00;;;25.10;99.90;;;;;;4176049;28;20049;-61
2023/07/03 04:19:55;;;;;;;6.32;5.30;;;25.40;99.90;;;;;;4176666;28;20112;-62
2023/07/03 04:21:56;;;;;;;9.55;5.97;;;25.50;99.90;;;;;;4174899;28;20091;-61
2023/07/03 04:23:57;;;;;;;7.95;5.10;;;25.70;99.90;;;;;;4175757;28;20048;-62
2023/07/03 04:25:59;;;;;;;8.88;5.25;;;25.80;99.90;;;;;;4175463;28;20037;-63
2023/07/03 04:28:00;;;;;;;7.97;4.93;;;25.90;99.90;;;;;;4173797;28;20082;-63
2023/07/03 04:30:05;;;;;;;11.35;4.88;;;26.10;99.90;;;;;;4175008;28;20045;-61
2023/07/03 04:32:06;;;;;;;10.27;4.90;;;26.40;99.90;;;;;;4176538;28;20051;-62
2023/07/03 04:34:07;;;;;;;5.78;3.97;;;26.50;99.90;;;;;;4176725;28;20455;-62
2023/07/03 04:36:11;;;;;;;7.40;4.18;;;26.50;99.90;;;;;;4176700;28;20025;-62
2023/07/03 04:38:17;;;;;;;5.50;3.90;;;26.50;99.90;;;;;;4178090;28;20078;-62
2023/07/03 04:40:18;;;;;;;4.15;3.75;;;26.50;99.90;;;;;;4179535;28;20165;-62
2023/07/03 04:42:20;;;;;;;4.53;3.58;;;26.30;99.90;;;;;;4180134;28;20372;-63
2023/07/03 04:44:21;;;;;;;5.28;3.75;;;26.00;99.90;;;;;;4177628;28;20045;-62
2023/07/03 04:46:25;;;;;;;5.60;3.80;;;26.20;99.90;;;;;;4179319;28;20033;-63
2023/07/03 04:48:26;;;;;;;4.80;3.78;;;26.40;99.90;;;;;;4178407;28;20021;-62
2023/07/03 04:50:29;;;;;;;4.07;3.33;;;26.30;99.90;;;;;;4178529;28;20045;-63
2023/07/03 04:52:30;;;;;;;6.25;3.63;;;26.10;99.90;;;;;;4178655;28;20067;-60
2023/07/03 04:54:31;;;;;;;7.88;4.00;;;25.80;99.90;;;;;;4180105;28;20467;-61
2023/07/03 04:56:34;;;;;;;4.85;3.92;;;25.40;99.90;;;;;;4179073;28;20033;-61
2023/07/03 04:58:35;;;;;;;6.20;3.90;;;25.20;99.90;;;;;;4179833;28;20041;-61
2023/07/03 05:00:36;;;;;;;5.40;3.92;;;24.90;99.90;;;;;;4178580;28;20083;-62
2023/07/03 05:02:37;;;;;;;15.43;3.97;;;24.60;99.90;;;;;;4179817;28;20088;-61
2023/07/03 05:04:39;;;;;;;4.85;3.55;;;24.40;99.90;;;;;;4179807;28;20045;-61
2023/07/03 05:06:40;;;;;;;6.07;4.43;;;24.00;99.90;;;;;;4179385;28;20033;-61
2023/07/03 05:08:41;;;;;;;4.90;4.25;;;23.70;99.90;;;;;;4160696;28;20046;-61
2023/07/03 05:10:42;;;;;;;9.35;4.25;;;23.30;99.90;;;;;;4179300;28;20054;-61
2023/07/03 05:12:44;;;;;;;6.18;4.45;;;23.00;99.90;;;;;;4179859;28;20461;-60
2023/07/03 05:14:45;;;;;;;5.20;4.20;;;22.60;99.90;;;;;;4178935;28;20025;-61
2023/07/03 05:16:46;;;;;;;6.30;4.75;;;22.40;99.90;;;;;;4180145;28;20025;-61
2023/07/03 05:18:48;;;;;;;6.30;4.13;;;22.30;99.90;;;;;;4178124;28;20103;-61
2023/07/03 05:20:49;;;;;;;8.48;4.55;;;22.20;99.90;;;;;;4179956;28;20473;-62
2023/07/03 05:22:51;;;;;;;8.10;4.35;;;22.10;99.90;;;;;;4178719;28;20040;-60
2023/07/03 05:24:52;;;;;;;7.20;4.82;;;22.20;99.90;;;;;;4179071;28;20138;-62
2023/07/03 05:26:53;;;;;;;5.80;3.92;;;22.30;99.90;;;;;;4178666;28;20032;-61
2023/07/03 05:28:55;;;;;;;9.85;5.03;;;22.30;99.90;;;;;;4179753;28;20032;-62
2023/07/03 05:30:57;;;;;;;6.60;4.60;;;22.40;99.90;;;;;;4178793;28;20376;-60
2023/07/03 05:32:58;;;;;;;9.25;4.45;;;22.40;99.90;;;;;;4179156;28;20107;-60
2023/07/03 05:35:02;;;;;;;8.32;4.07;;;22.50;99.90;;;;;;4178507;28;20042;-61
2023/07/03 05:37:04;;;;;;;6.97;4.43;;;22.60;99.90;;;;;;4179225;28;20029;-61
2023/07/03 05:39:05;;;;;;;6.07;4.15;;;22.60;99.90;;;;;;4178819;28;20036;-61
2023/07/03 05:41:07;;;;;;;4.47;3.65;;;22.70;99.90;;;;;;4178346;28;20121;-60
2023/07/03 05:43:08;;;;;;;8.15;4.47;;;22.70;99.90;;;;;;4178786;28;20045;-62
2023/07/03 05:45:09;;;;;;;5.75;4.40;;;22.90;99.90;;;;;;4178345;28;20102;-61
2023/07/03 05:47:12;;;;;;;6.53;4.72;;;23.30;99.90;;;;;;4161318;28;20096;-62
2023/07/03 05:49:13;;;;;;;9.55;4.40;;;23.30;99.90;;;;;;4177466;28;20485;-62
2023/07/03 05:51:14;;;;;;;6.80;4.22;;;23.50;99.90;;;;;;4161507;28;20095;-62
2023/07/03 05:53:15;;;;;;;6.43;4.00;;;23.80;99.90;;;;;;4177772;28;20476;-63
2023/07/03 05:55:16;;;;;;;8.13;3.97;;;23.60;99.90;;;;;;4179472;28;20032;-63
2023/07/03 05:57:17;;;;;;;7.65;4.40;;;23.70;99.90;;;;;;4178102;28;20094;-62
2023/07/03 05:59:19;;;;;;;4.20;3.20;;;24.00;99.90;;;;;;4179180;28;20106;-61
2023/07/03 06:01:20;;;;;;;5.43;3.75;;;24.50;99.90;;;;;;4177519;28;20041;-61
2023/07/03 06:03:24;;;;;;;3.85;3.10;;;24.60;99.90;;;;;;4178842;28;20041;-60
2023/07/03 06:05:25;;;;;;;4.57;3.47;;;24.70;99.90;;;;;;4176922;28;20053;-61
2023/07/03 06:07:26;;;;;;;7.63;3.83;;;24.80;99.90;;;;;;4178001;28;20083;-61
2023/07/03 06:09:28;;;;;;;6.60;3.45;;;24.80;99.90;;;;;;4177774;28;20037;-60
2023/07/03 06:11:31;;;;;;;8.23;3.70;;;25.00;99.90;;;;;;4177695;28;20435;-61
2023/07/03 06:13:32;;;;;;;4.05;3.53;;;25.30;99.90;;;;;;4178472;28;20021;-61
2023/07/03 06:15:35;;;;;;;4.47;3.58;;;25.60;99.90;;;;;;4159873;28;20037;-62
2023/07/03 06:17:40;;;;;;;4.10;3.65;;;26.20;99.90;;;;;;4178871;28;20095;-61
2023/07/03 06:19:41;;;;;;;3.83;2.97;;;26.90;99.90;;;;;;4177650;28;20095;-62
2023/07/03 06:21:43;;;;;;;7.75;3.58;;;27.40;99.90;;;;;;4178891;28;20074;-61
2023/07/03 06:23:44;;;;;;;6.35;3.55;;;28.00;99.90;;;;;;4177798;28;20495;-61
2023/07/03 06:25:46;;;;;;;5.88;4.03;;;28.60;99.90;;;;;;4178965;28;20037;-61
2023/07/03 06:27:48;;;;;;;5.05;3.50;;;28.90;99.90;;;;;;4177684;28;20078;-61
2023/07/03 06:29:49;;;;;;;7.75;3.13;;;29.10;99.90;;;;;;4178892;28;20025;-62
2023/07/03 06:31:52;;;;;;;3.28;2.80;;;29.40;99.70;;;;;;4177464;28;20083;-61
2023/07/03 06:33:53;;;;;;;5.00;3.45;;;29.30;99.30;;;;;;4178616;28;20048;-62
2023/07/03 06:35:54;;;;;;;3.40;2.72;;;29.10;99.20;;;;;;4177288;28;20622;-67
2023/07/03 06:37:58;;;;;;;7.95;3.85;;;29.30;99.30;;;;;;4178216;28;20494;-62
2023/07/03 06:39:59;;;;;;;6.28;3.25;;;30.00;98.50;;;;;;4177571;28;20068;-62
2023/07/03 06:42:02;;;;;;;5.03;3.40;;;30.20;98.00;;;;;;4178145;28;20036;-62
2023/07/03 06:44:05;;;;;;;5.18;3.88;;;30.10;97.90;;;;;;4177743;28;20037;-62
2023/07/03 06:46:06;;;;;;;8.55;3.85;;;29.60;98.20;;;;;;4177967;28;20029;-61
2023/07/03 06:48:08;;;;;;;9.02;3.50;;;29.90;98.50;;;;;;4178164;28;20539;-62
2023/07/03 06:50:09;;;;;;;6.95;3.70;;;30.20;98.00;;;;;;4177121;28;20087;-61
2023/07/03 06:52:10;;;;;;;4.18;3.78;;;30.40;97.60;;;;;;4177859;28;20092;-61
2023/07/03 06:54:11;;;;;;;4.63;3.88;;;29.80;97.70;;;;;;4177244;28;20098;-60
2023/07/03 06:56:13;;;;;;;9.40;4.10;;;29.40;98.00;;;;;;4178631;28;20017;-68
2023/07/03 06:58:14;;;;;;;4.32;3.63;;;29.20;98.30;;;;;;4159168;28;20045;-62
2023/07/03 07:00:15;;;;;;;6.05;3.97;;;29.00;98.50;;;;;;4177442;28;20091;-62
2023/07/03 07:02:16;;;;;;;3.85;3.45;;;29.00;98.40;;;;;;4176537;28;20045;-65
2023/07/03 07:04:18;;;;;;;6.45;3.83;;;29.10;98.40;;;;;;4178035;28;20381;-60
2023/07/03 07:06:22;;;;;;;5.03;3.30;;;29.40;98.30;;;;;;4176487;28;20078;-62
2023/07/03 07:08:23;;;;;;;3.67;3.35;;;29.80;98.00;;;;;;4178282;28;20021;-64
2023/07/03 07:10:24;;;;;;;4.65;3.95;;;29.90;97.80;;;;;;4176467;28;20127;-62
2023/07/03 07:12:25;;;;;;;4.53;3.65;;;30.20;97.50;;;;;;4177887;28;20025;-65
2023/07/03 07:14:27;;;;;;;5.82;3.50;;;30.20;97.20;;;;;;4177217;28;20036;-64
2023/07/03 07:16:31;;;;;;;6.00;3.40;;;29.50;97.30;;;;;;4177243;28;20170;-64
2023/07/03 07:18:32;;;;;;;6.50;3.90;;;29.10;97.60;;;;;;4177368;28;20075;-63
2023/07/03 07:20:40;;;;;;;6.32;3.92;;;28.90;97.80;;;;;;4177009;28;20083;-65
2023/07/03 07:22:41;;;;;;;6.30;3.60;;;29.10;97.80;;;;;;4177259;28;20328;-64
2023/07/03 07:24:43;;;;;;;5.55;3.53;;;29.10;97.90;;;;;;4177117;28;20443;-63
2023/07/03 07:26:45;;;;;;;7.55;3.67;;;29.10;97.80;;;;;;4178021;28;20465;-65
2023/07/03 07:28:46;;;;;;;4.38;3.83;;;29.10;98.00;;;;;;4176826;28;20025;-63
2023/07/03 07:30:48;;;;;;;5.28;4.22;;;29.20;97.90;;;;;;4178195;28;20033;-62
2023/07/03 07:32:49;;;;;;;7.43;3.83;;;28.60;97.90;;;;;;4176586;28;20396;-63
2023/07/03 07:34:51;;;;;;;7.95;4.07;;;28.20;98.30;;;;;;4177427;28;20040;-63
2023/07/03 07:36:52;;;;;;;5.10;3.90;;;27.80;99.00;;;;;;4176782;28;20079;-63
2023/07/03 07:38:54;;;;;;;5.63;3.65;;;27.70;99.00;;;;;;4177794;28;20033;-62
2023/07/03 07:41:02;;;;;;;7.15;3.58;;;28.10;98.90;;;;;;4176531;28;20487;-62
2023/07/03 07:43:03;;;;;;;7.35;4.20;;;28.50;98.20;;;;;;4177421;28;20037;-62
2023/07/03 07:45:06;;;;;;;6.32;3.40;;;28.20;98.20;;;;;;4176041;28;20086;-61
2023/07/03 07:47:09;;;;;;;6.15;3.75;;;28.00;98.50;;;;;;4177437;28;20456;-60
2023/07/03 07:49:10;;;;;;;4.15;3.35;;;27.90;98.50;;;;;;4176577;28;20419;-61
2023/07/03 07:51:12;;;;;;;5.05;2.83;;;27.60;98.60;;;;;;4177167;28;20025;-61
2023/07/03 07:53:14;;;;;;;3.70;3.15;;;27.40;98.70;;;;;;4176855;28;20094;-63
2023/07/03 07:55:15;;;;;;;5.97;3.25;;;27.50;98.70;;;;;;4176212;28;20439;-61
2023/07/03 07:57:16;;;;;;;4.18;3.25;;;27.80;98.70;;;;;;4176996;28;20025;-61
2023/07/03 07:59:17;;;;;;;4.55;3.20;;;28.40;98.60;;;;;;4176516;28;20487;-61
2023/07/03 08:01:19;;;;;;;5.93;3.47;;;28.80;98.20;;;;;;4176854;28;20102;-61
2023/07/03 08:03:20;;;;;;;3.90;3.08;;;28.90;97.90;;;;;;4175379;28;20102;-62
2023/07/03 08:05:21;;;;;;;5.13;3.42;;;28.90;97.80;;;;;;4177287;28;20090;-62
2023/07/03 08:07:22;;;;;;;3.15;2.85;;;28.70;97.80;;;;;;4176038;28;20029;-61
2023/07/03 08:09:24;;;;;;;3.70;3.17;;;28.60;97.80;;;;;;4177077;28;20025;-63
2023/07/03 08:11:28;;;;;;;5.65;3.45;;;28.80;97.60;;;;;;4175628;28;20033;-62
2023/07/03 08:13:31;;;;;;;4.70;3.03;;;29.10;97.30;;;;;;4176826;28;20029;-63
2023/07/03 08:15:32;;;;;;;4.10;3.22;;;29.50;97.00;;;;;;4176361;28;20106;-61
2023/07/03 08:17:33;;;;;;;4.65;3.05;;;29.60;96.70;;;;;;4176952;28;20033;-61
2023/07/03 08:19:35;;;;;;;3.70;3.10;;;29.50;96.90;;;;;;4175666;28;20448;-61
2023/07/03 08:21:36;;;;;;;5.90;3.10;;;29.40;97.00;;;;;;4176470;28;20041;-61
2023/07/03 08:23:37;;;;;;;5.57;3.20;;;29.50;97.10;;;;;;4176368;28;20131;-62
2023/07/03 08:25:40;;;;;;;5.88;3.10;;;29.60;97.00;;;;;;4176599;28;20147;-62
2023/07/03 08:27:46;;;;;;;3.83;3.28;;;29.80;96.60;;;;;;4176215;28;20028;-62
2023/07/03 08:29:47;;;;;;;4.03;3.17;;;30.20;96.20;;;;;;4176314;28;20083;-63
2023/07/03 08:31:48;;;;;;;5.53;3.13;;;30.70;96.10;;;;;;4176135;28;20045;-62
2023/07/03 08:33:51;;;;;;;5.20;2.90;;;30.80;95.50;;;;;;4175452;28;20366;-62
2023/07/03 08:35:53;;;;;;;4.45;2.72;;;30.60;95.30;;;;;;4176586;28;20044;-61
2023/07/03 08:37:54;;;;;;;3.67;3.08;;;30.50;95.30;;;;;;4176051;28;20071;-62
2023/07/03 08:39:56;;;;;;;5.90;3.50;;;30.10;95.00;;;;;;4176656;28;20045;-62
2023/07/03 08:42:13;;;;;;;5.70;2.92;;;29.80;95.20;;;;;;4175878;28;20025;-62
2023/07/03 08:44:14;;;;;;;4.78;3.28;;;29.40;95.10;;;;;;4176287;28;20049;-62
2023/07/03 08:46:22;;;;;;;5.70;3.50;;;29.00;95.50;;;;;;4175899;28;20535;-61
2023/07/03 08:48:27;;;;;;;4.30;3.13;;;28.50;95.90;;;;;;4176925;28;20036;-61
2023/07/03 08:50:29;;;;;;;6.47;3.17;;;28.60;96.20;;;;;;4175892;28;20024;-62
2023/07/03 08:52:40;;;;;;;3.20;2.90;;;29.00;96.10;;;;;;4176380;28;20045;-61
2023/07/03 08:54:42;;;;;;;3.90;2.92;;;29.30;95.70;;;;;;4174994;28;20041;-62
2023/07/03 08:56:43;;;;;;;3.67;2.95;;;29.30;95.70;;;;;;4177039;28;20473;-62
2023/07/03 08:58:45;;;;;;;5.60;3.08;;;29.40;95.60;;;;;;4175243;28;20377;-62
2023/07/03 09:00:50;;;;;;;5.88;2.72;;;29.50;95.30;;;;;;4176418;28;20029;-62
2023/07/03 09:03:11;;;;;;;6.97;3.10;;;29.30;95.00;;;;;;4175690;28;20077;-64
2023/07/03 09:05:26;;;;;;;3.63;2.97;;;29.00;94.70;;;;;;4177086;28;20461;-60
2023/07/03 09:07:33;;;;;;;7.60;2.92;;;29.00;95.00;;;;;;4174882;28;20040;-62
2023/07/03 09:09:53;;;;;;;2.92;2.58;;;28.80;95.00;;;;;;4176376;28;20434;-62
2023/07/03 09:12:00;;;;;;;;;;;28.90;95.20;;;;;;4175781;28;20095;-61
2023/07/03 09:14:02;;;;;;;12.23;2.78;;;29.20;95.10;;;;;;4177059;28;19913;-62
2023/07/03 09:16:21;;;;;;;6.05;2.63;;;29.30;95.20;;;;;;4175564;28;20029;-62
2023/07/03 09:18:28;;;;;;;2.30;2.10;;;29.30;94.60;;;;;;4176240;28;20040;-62
2023/07/03 09:20:30;;;;;;;4.15;1.98;;;29.20;94.60;;;;;;4175362;28;20102;-62
2023/07/03 09:22:39;;;;;;;2.63;1.88;;;29.30;94.60;;;;;;4176047;28;20041;-62
2023/07/03 09:24:43;;;;;;;2.28;2.13;;;29.60;93.90;;;;;;4177949;28;20033;-61
2023/07/03 09:26:59;;;;;;;2.15;1.77;;;29.80;94.10;;;;;;4161766;28;20151;-62
2023/07/03 09:29:03;;;;;;;2.05;1.90;;;29.90;93.30;;;;;;4178170;28;20114;-60
2023/07/03 09:31:04;;;;;;;2.10;1.80;;;30.00;93.30;;;;;;4179748;28;20075;-60
2023/07/03 09:33:09;;;;;;;2.83;1.80;;;30.10;93.30;;;;;;4178616;28;20053;-61
2023/07/03 09:35:15;;;;;;;2.13;1.92;;;30.00;93.10;;;;;;4179365;28;20033;-62
2023/07/03 09:37:16;;;;;;;1.90;1.70;;;29.70;92.80;;;;;;4178362;28;20049;-62
2023/07/03 09:39:20;;;;;;;5.07;2.22;;;29.40;93.00;;;;;;4179039;28;20435;-63
2023/07/03 09:41:29;;;;;;;2.97;1.67;;;29.40;92.90;;;;;;4178877;28;20037;-62
2023/07/03 09:43:31;;;;;;;3.47;2.03;;;29.50;92.50;;;;;;4177916;28;20154;-62
2023/07/03 09:45:34;;;;;;;3.05;2.20;;;29.40;92.20;;;;;;4179015;28;20456;-63
2023/07/03 09:47:35;;;;;;;3.20;2.03;;;29.00;92.30;;;;;;4178250;28;20110;-61
2023/07/03 09:49:36;;;;;;;2.95;2.55;;;29.00;92.30;;;;;;4179170;28;20040;-66
2023/07/03 09:51:38;;;;;;;9.82;4.18;;;28.60;94.30;;;;;;4178332;28;20033;-61
2023/07/03 09:53:39;;;;;;;7.45;3.83;;;28.40;95.60;;;;;;4179334;28;20082;-62
2023/07/03 09:55:42;;;;;;;6.07;3.80;;;28.30;96.60;;;;;;4177629;28;20049;-62
2023/07/03 09:57:43;;;;;;;3.85;3.45;;;28.00;97.00;;;;;;4179304;28;20036;-62
2023/07/03 09:59:45;;;;;;;4.13;3.47;;;27.70;97.30;;;;;;4178173;28;20099;-62
2023/07/03 10:01:47;;;;;;;6.38;3.50;;;27.50;97.50;;;;;;4179173;28;20029;-62
2023/07/03 10:03:54;;;;;;;6.32;3.28;;;27.30;97.90;;;;;;4159597;28;20029;-61
2023/07/03 10:06:02;;;;;;;4.30;2.88;;;27.20;98.10;;;;;;4179321;28;20075;-63
2023/07/03 10:08:08;;;;;;;3.70;2.90;;;26.90;98.30;;;;;;4178095;28;20079;-62
2023/07/03 10:10:14;;;;;;;6.18;3.60;;;26.80;98.30;;;;;;4178307;28;20098;-63
2023/07/03 10:12:38;;;;;;;3.30;2.85;;;26.80;98.20;;;;;;4177467;28;20110;-61
2023/07/03 10:14:42;;;;;;;3.58;2.80;;;26.80;98.40;;;;;;4178021;28;20081;-61
2023/07/03 10:16:44;;;;;;;3.00;2.70;;;26.70;98.30;;;;;;4177223;28;20129;-62
2023/07/03 10:18:48;;;;;;;5.60;2.97;;;26.60;98.60;;;;;;4178554;28;20435;-63
2023/07/03 10:20:51;;;;;;;3.22;2.67;;;26.60;98.20;;;;;;4177783;28;20029;-62
2023/07/03 10:22:55;;;;;;;5.25;2.67;;;26.70;98.00;;;;;;4178553;28;20045;-62
2023/07/03 10:25:02;;;;;;;4.85;2.33;;;26.80;97.70;;;;;;4178039;28;20444;-63
2023/07/03 10:27:04;;;;;;;3.10;2.75;;;26.90;97.40;;;;;;4178243;28;20041;-62
2023/07/03 10:29:12;;;;;;;4.65;2.55;;;26.90;97.30;;;;;;4178206;28;20029;-62
2023/07/03 10:31:20;;;;;;;5.82;2.83;;;27.10;97.10;;;;;;4178225;28;20040;-61
2023/07/03 10:33:33;;;;;;;2.90;1.92;;;27.10;97.10;;;;;;4177278;28;20103;-61
2023/07/03 10:35:34;;;;;;;2.53;2.08;;;27.20;96.80;;;;;;4177315;28;20102;-62
2023/07/03 10:38:13;;;;;;;10.90;2.40;;;27.30;96.40;;;;;;4178190;28;20025;-62